Time;durP1;ratioP1;P1;durP2;ratioP2;P2;SDS_P1;SDS_P2;PMS_P1;PMS_P2;Temp;Humidity;BMP_temperature;BMP_pressure;BME280_temperature;BME280_humidity;BME280_pressure;Samples;Min_cycle;Max_cycle;Signal;HPM_P1;HPM_P2
2024/02/13 00:01:53;;;;;;;;;;;;;;;-0.84;82.48;100683.09;5037419;28;20298;-79
2024/02/13 00:04:20;;;;;;;;;;;;;;;-0.85;82.42;100673.69;5037097;28;19932;-79
2024/02/13 00:06:49;;;;;;;;;;;;;;;-0.83;82.34;100681.41;5037119;28;19925;-79
2024/02/13 00:09:16;;;;;;;;;;;;;;;-0.83;82.13;100677.16;5036896;28;20023;-79
2024/02/13 00:11:46;;;;;;;;;;;;;;;-0.83;82.03;100676.25;5036984;28;20390;-78
2024/02/13 00:14:13;;;;;;;;;;;;;;;-0.82;82.28;100672.88;5036719;28;19932;-79
2024/02/13 00:16:39;;;;;;;;;;;;;;;-0.83;82.25;100664.31;5036698;28;19925;-79
2024/02/13 00:19:06;;;;;;;;;;;;;;;-0.83;82.34;100672.03;5036567;28;19925;-79
2024/02/13 00:21:32;;;;;;;;;;;;;;;-0.82;82.41;100668.59;5036591;28;19935;-78
2024/02/13 00:24:01;;;;;;;;;;;;;;;-0.82;82.55;100666.03;5036475;28;19980;-78
2024/02/13 00:26:27;;;;;;;;;;;;;;;-0.83;81.80;100660.84;5036736;28;19932;-79
2024/02/13 00:28:54;;;;;;;;;;;;;;;-0.83;81.75;100658.28;5036173;28;20267;-74
2024/02/13 00:31:21;;;;;;;;;;;;;;;-0.83;82.23;100656.59;5035676;28;19925;-74
2024/02/13 00:33:48;;;;;;;;;;;;;;;-0.82;81.81;100655.75;5035358;28;19987;-75
2024/02/13 00:36:15;;;;;;;;;;;;;;;-0.82;82.20;100658.34;5035686;28;19987;-74
2024/02/13 00:38:43;;;;;;;;;;;;;;;-0.83;82.02;100659.19;5035564;28;19925;-74
2024/02/13 00:41:11;;;;;;;;;;;;;;;-0.83;81.62;100661.75;5035623;28;19925;-75
2024/02/13 00:43:38;;;;;;;;;;;;;;;-0.82;81.81;100662.59;5035441;28;19925;-74
2024/02/13 00:46:05;;;;;;;;;;;;;;;-0.82;82.27;100660.91;5035499;28;19926;-74
2024/02/13 00:48:31;;;;;;;;;;;;;;;-0.82;81.54;100652.34;5035140;28;19929;-75
2024/02/13 00:50:58;;;;;;;;;;;;;;;-0.82;81.32;100660.91;5035383;28;20378;-75
2024/02/13 00:53:24;;;;;;;;;;;;;;;-0.82;81.94;100666.03;5035283;28;19932;-75
2024/02/13 00:55:52;;;;;;;;;;;;;;;-0.81;81.45;100654.06;5034587;28;19931;-74
2024/02/13 00:58:20;;;;;;;;;;;;;;;-0.81;81.78;100656.63;5035593;28;19925;-79
2024/02/13 01:00:49;;;;;;;;;;;;;;;-0.81;81.42;100654.91;5035771;28;19924;-79
2024/02/13 01:03:15;;;;;;;;;;;;;;;-0.80;81.47;100654.09;5036108;28;19932;-79
2024/02/13 01:05:42;;;;;;;;;;;;;;;-0.80;81.87;100658.38;5035750;28;19936;-79
2024/02/13 01:08:10;;;;;;;;;;;;;;;-0.81;81.34;100654.91;5036043;28;20282;-79
2024/02/13 01:10:37;;;;;;;;;;;;;;;-0.80;81.63;100655.81;5035574;28;20027;-78
2024/02/13 01:13:04;;;;;;;;;;;;;;;-0.80;81.75;100653.25;5035291;28;19925;-78
2024/02/13 01:15:33;;;;;;;;;;;;;;;-0.80;81.00;100654.09;5035229;28;19925;-79
2024/02/13 01:18:00;;;;;;;;;;;;;;;-0.80;81.64;100654.09;5035253;28;19925;-79
2024/02/13 01:20:26;;;;;;;;;;;;;;;-0.78;80.74;100656.69;5035201;28;19925;-78
2024/02/13 01:22:53;;;;;;;;;;;;;;;-0.78;81.39;100649.84;5035183;28;19925;-78
2024/02/13 01:25:20;;;;;;;;;;;;;;;-0.79;81.42;100653.25;5035084;28;20375;-78
2024/02/13 01:27:47;;;;;;;;;;;;;;;-0.78;81.51;100659.25;5035191;28;19931;-79
2024/02/13 01:30:14;;;;;;;;;;;;;;;-0.79;81.23;100658.41;5034934;28;19932;-79
2024/02/13 01:32:43;;;;;;;;;;;;;;;-0.78;81.38;100659.25;5035023;28;19929;-77
2024/02/13 01:35:11;;;;;;;;;;;;;;;-0.78;81.84;100656.69;5035041;28;19925;-79
2024/02/13 01:37:37;;;;;;;;;;;;;;;-0.78;81.38;100654.97;5034924;28;19925;-74
2024/02/13 01:40:05;;;;;;;;;;;;;;;-0.76;81.36;100659.31;5034401;28;19955;-73
2024/02/13 01:42:37;;;;;;;;;;;;;;;-0.76;81.14;100660.16;5034367;28;20342;-73
2024/02/13 01:45:05;;;;;;;;;;;;;;;-0.76;81.18;100659.31;5034376;28;19924;-73
2024/02/13 01:47:31;;;;;;;;;;;;;;;-0.75;81.28;100658.47;5034318;28;20157;-73
2024/02/13 01:49:59;;;;;;;;;;;;;;;-0.74;80.90;100649.91;5034280;28;19925;-73
2024/02/13 01:52:27;;;;;;;;;;;;;;;-0.75;80.93;100656.75;5034113;28;20374;-73
2024/02/13 01:54:54;;;;;;;;;;;;;;;-0.74;80.67;100657.63;5034156;28;19933;-73
2024/02/13 01:57:23;;;;;;;;;;;;;;;-0.74;81.39;100657.63;5033915;28;19929;-73
2024/02/13 01:59:50;;;;;;;;;;;;;;;-0.76;81.36;100649.03;5034470;28;19983;-74
2024/02/13 02:02:18;;;;;;;;;;;;;;;-0.76;80.91;100641.31;5034042;28;20293;-73
2024/02/13 02:04:45;;;;;;;;;;;;;;;-0.75;81.19;100653.31;5033958;28;19981;-74
2024/02/13 02:07:13;;;;;;;;;;;;;;;-0.73;80.92;100646.53;5033023;28;19929;-77
2024/02/13 02:09:40;;;;;;;;;;;;;;;-0.73;80.51;100656.81;5033964;28;20374;-77
2024/02/13 02:12:07;;;;;;;;;;;;;;;-0.71;81.12;100650.00;5033887;28;19931;-77
2024/02/13 02:14:34;;;;;;;;;;;;;;;-0.72;81.02;100655.97;5033699;28;20393;-77
2024/02/13 02:17:08;;;;;;;;;;;;;;;-0.71;81.44;100650.00;5033742;28;20309;-76
2024/02/13 02:19:34;;;;;;;;;;;;;;;-0.71;80.90;100644.88;5033734;28;19925;-76
2024/02/13 02:22:03;;;;;;;;;;;;;;;-0.71;80.75;100650.88;5033806;28;19931;-77
2024/02/13 02:24:31;;;;;;;;;;;;;;;-0.69;81.03;100648.31;5033680;28;20374;-77
2024/02/13 02:26:59;;;;;;;;;;;;;;;-0.70;80.35;100639.75;5033567;28;20385;-76
2024/02/13 02:29:26;;;;;;;;;;;;;;;-0.69;81.02;100638.03;5033553;28;19968;-77
2024/02/13 02:31:52;;;;;;;;;;;;;;;-0.70;81.00;100632.03;5033541;28;19925;-76
2024/02/13 02:34:19;;;;;;;;;;;;;;;-0.69;81.16;100636.31;5033454;28;19925;-77
2024/02/13 02:36:46;;;;;;;;;;;;;;;-0.69;80.67;100643.16;5033338;28;19925;-77
2024/02/13 02:39:12;;;;;;;;;;;;;;;-0.69;81.04;100633.75;5033541;28;19925;-76
2024/02/13 02:41:39;;;;;;;;;;;;;;;-0.69;80.79;100636.31;5033403;28;20036;-76
2024/02/13 02:44:08;;;;;;;;;;;;;;;-0.69;80.17;100628.63;5033275;28;20297;-76
2024/02/13 02:46:35;;;;;;;;;;;;;;;-0.67;80.56;100631.22;5033260;28;20367;-77
2024/02/13 02:49:02;;;;;;;;;;;;;;;-0.67;80.99;100636.38;5033419;28;20012;-75
2024/02/13 02:51:29;;;;;;;;;;;;;;;-0.67;80.80;100623.53;5033331;28;20293;-74
2024/02/13 02:53:55;;;;;;;;;;;;;;;-0.66;80.99;100622.69;5033209;28;19927;-75
2024/02/13 02:56:22;;;;;;;;;;;;;;;-0.66;80.68;100622.69;5033084;28;19995;-75
2024/02/13 02:58:49;;;;;;;;;;;;;;;-0.66;80.54;100613.28;5033086;28;19925;-75
2024/02/13 03:01:18;;;;;;;;;;;;;;;-0.65;80.42;100619.28;5033037;28;20020;-75
2024/02/13 03:03:45;;;;;;;;;;;;;;;-0.65;80.21;100624.44;5033092;28;19971;-74
2024/02/13 03:06:13;;;;;;;;;;;;;;;-0.65;80.70;100625.28;5033098;28;20293;-74
2024/02/13 03:08:40;;;;;;;;;;;;;;;-0.65;80.42;100630.44;5033018;28;20362;-75
2024/02/13 03:11:07;;;;;;;;;;;;;;;-0.65;80.60;100619.28;5033000;28;20390;-75
2024/02/13 03:13:34;;;;;;;;;;;;;;;-0.64;80.32;100621.00;5033110;28;19929;-75
2024/02/13 03:16:00;;;;;;;;;;;;;;;-0.63;80.87;100630.44;5032885;28;19925;-74
2024/02/13 03:18:29;;;;;;;;;;;;;;;-0.63;80.68;100625.31;5033721;28;20282;-76
2024/02/13 03:20:55;;;;;;;;;;;;;;;-0.63;80.70;100622.75;5037170;28;20031;-76
2024/02/13 03:23:22;;;;;;;;;;;;;;;-0.63;80.74;100621.06;5036962;28;19983;-76
2024/02/13 03:25:48;;;;;;;;;;;;;;;-0.63;80.55;100622.75;5036917;28;19925;-76
2024/02/13 03:28:15;;;;;;;;;;;;;;;-0.63;80.13;100617.59;5036918;28;19925;-77
2024/02/13 03:30:43;;;;;;;;;;;;;;;-0.63;80.27;100625.31;5036974;28;19929;-77
2024/02/13 03:33:10;;;;;;;;;;;;;;;-0.63;80.62;100625.31;5036710;28;20020;-76
2024/02/13 03:35:37;;;;;;;;;;;;;;;-0.63;80.63;100622.75;5036686;28;20294;-77
2024/02/13 03:38:04;;;;;;;;;;;;;;;-0.62;80.57;100627.06;5036618;28;20297;-77
2024/02/13 03:40:30;;;;;;;;;;;;;;;-0.60;80.67;100627.97;5036625;28;20016;-77
2024/02/13 03:42:57;;;;;;;;;;;;;;;-0.60;80.40;100628.84;5036703;28;19931;-77
2024/02/13 03:45:24;;;;;;;;;;;;;;;-0.60;80.15;100627.97;5036493;28;19929;-77
2024/02/13 03:47:50;;;;;;;;;;;;;;;-0.61;80.11;100634.78;5036426;28;19925;-77
2024/02/13 03:50:17;;;;;;;;;;;;;;;-0.60;80.53;100633.09;5036393;28;20004;-77
2024/02/13 03:52:45;;;;;;;;;;;;;;;-0.61;80.71;100631.34;5036642;28;19979;-76
2024/02/13 03:55:11;;;;;;;;;;;;;;;-0.61;80.45;100636.50;5036436;28;20381;-76
2024/02/13 03:57:39;;;;;;;;;;;;;;;-0.60;80.51;100635.69;5036322;28;19925;-74
2024/02/13 04:00:07;;;;;;;;;;;;;;;-0.60;80.73;100631.41;5036385;28;20034;-73
2024/02/13 04:02:33;;;;;;;;;;;;;;;-0.59;80.23;100630.56;5036281;28;19975;-73
2024/02/13 04:05:00;;;;;;;;;;;;;;;-0.59;80.50;100634.84;5036286;28;20413;-73
2024/02/13 04:07:27;;;;;;;;;;;;;;;-0.58;80.43;100628.84;5036020;28;19925;-73
2024/02/13 04:09:55;;;;;;;;;;;;;;;-0.58;80.48;100623.72;5036166;28;20314;-73
2024/02/13 04:12:22;;;;;;;;;;;;;;;-0.58;79.98;100627.13;5035970;28;20271;-73
2024/02/13 04:14:49;;;;;;;;;;;;;;;-0.56;80.63;100629.75;5036098;28;19936;-73
2024/02/13 04:17:16;;;;;;;;;;;;;;;-0.56;80.63;100637.47;5035956;28;19925;-74
2024/02/13 04:19:43;;;;;;;;;;;;;;;-0.56;80.45;100640.03;5035900;28;19925;-73
2024/02/13 04:22:09;;;;;;;;;;;;;;;-0.57;80.77;100639.16;5035951;28;19972;-74
2024/02/13 04:24:36;;;;;;;;;;;;;;;-0.56;80.21;100640.03;5035935;28;19925;-73
2024/02/13 04:27:05;;;;;;;;;;;;;;;-0.56;80.32;100637.47;5035877;28;19936;-79
2024/02/13 04:29:32;;;;;;;;;;;;;;;-0.56;80.35;100640.03;5036456;28;19969;-79
2024/02/13 04:31:59;;;;;;;;;;;;;;;-0.57;80.73;100636.59;5035668;28;20271;-79
2024/02/13 04:34:25;;;;;;;;;;;;;;;-0.56;80.18;100640.03;5036678;28;19925;-79
2024/02/13 04:36:52;;;;;;;;;;;;;;;-0.56;80.28;100642.59;5036190;28;19931;-79
2024/02/13 04:39:19;;;;;;;;;;;;;;;-0.56;80.39;100640.03;5036778;28;19956;-79
2024/02/13 04:41:46;;;;;;;;;;;;;;;-0.57;80.49;100639.16;5036740;28;19931;-79
2024/02/13 04:44:14;;;;;;;;;;;;;;;-0.56;80.51;100637.47;5036427;28;19925;-78
2024/02/13 04:46:41;;;;;;;;;;;;;;;-0.57;80.41;100639.16;5036452;28;19926;-79
2024/02/13 04:49:08;;;;;;;;;;;;;;;-0.56;80.03;100640.03;5036383;28;19933;-79
2024/02/13 04:51:35;;;;;;;;;;;;;;;-0.55;80.45;100636.63;5036090;28;19932;-79
2024/02/13 04:54:03;;;;;;;;;;;;;;;-0.55;80.39;100637.47;5036012;28;20289;-79
2024/02/13 04:56:29;;;;;;;;;;;;;;;-0.55;80.54;100634.91;5036156;28;19925;-79
2024/02/13 04:58:56;;;;;;;;;;;;;;;-0.53;80.34;100639.22;5035975;28;19925;-79
2024/02/13 05:01:25;;;;;;;;;;;;;;;-0.52;80.31;100630.69;5036170;28;19932;-79
2024/02/13 05:09:16;;;;;;;;;;;;;;;-0.51;80.56;100627.28;5036588;28;19979;-80
2024/02/13 05:11:43;;;;;;;;;;;;;;;-0.49;80.55;100628.16;5036132;28;19925;-79
2024/02/13 05:14:09;;;;;;;;;;;;;;;-0.49;80.47;100636.72;5035908;28;19932;-79
2024/02/13 05:16:40;;;;;;;;;;;;;;;-0.47;80.11;100639.34;5035746;28;19925;-80
2024/02/13 05:19:07;;;;;;;;;;;;;;;-0.47;80.37;100635.06;5036079;28;19979;-80
2024/02/13 05:21:35;;;;;;;;;;;;;;;-0.46;80.45;100641.06;5036355;28;19925;-80
2024/02/13 05:24:02;;;;;;;;;;;;;;;-0.47;79.83;100637.63;5036364;28;19925;-80
2024/02/13 05:26:29;;;;;;;;;;;;;;;-0.47;80.71;100637.63;5035635;28;19929;-80
2024/02/13 05:28:56;;;;;;;;;;;;;;;-0.47;80.53;100642.78;5035918;28;20383;-80
2024/02/13 05:31:23;;;;;;;;;;;;;;;-0.46;79.96;100641.97;5035766;28;20005;-80
2024/02/13 05:33:52;;;;;;;;;;;;;;;-0.48;80.59;100646.19;5035916;28;19925;-80
2024/02/13 05:36:18;;;;;;;;;;;;;;;-0.47;80.55;100644.50;5035514;28;19972;-80
2024/02/13 05:38:46;;;;;;;;;;;;;;;-0.48;79.97;100638.50;5035807;28;19952;-80
2024/02/13 05:41:13;;;;;;;;;;;;;;;-0.48;79.81;100648.75;5035458;28;19929;-80
2024/02/13 05:43:41;;;;;;;;;;;;;;;-0.47;80.31;100644.50;5035591;28;19933;-80
2024/02/13 05:46:07;;;;;;;;;;;;;;;-0.47;80.16;100640.22;5035845;28;19926;-81
2024/02/13 05:48:35;;;;;;;;;;;;;;;-0.46;79.94;100647.09;5035744;28;19925;-85
2024/02/13 05:51:04;;;;;;;;;;;;;;;-0.45;80.45;100641.13;5036177;28;19925;-82
2024/02/13 05:53:31;;;;;;;;;;;;;;;-0.44;79.97;100645.41;5036364;28;19925;-82
2024/02/13 05:55:57;;;;;;;;;;;;;;;-0.45;80.30;100638.53;5036109;28;19925;-82
2024/02/13 05:58:27;;;;;;;;;;;;;;;-0.44;80.04;100645.41;5035927;28;19932;-82
2024/02/13 06:00:54;;;;;;;;;;;;;;;-0.43;80.17;100643.69;5036278;28;19925;-82
2024/02/13 06:03:22;;;;;;;;;;;;;;;-0.42;79.99;100651.47;5035700;28;19933;-81
2024/02/13 06:05:49;;;;;;;;;;;;;;;-0.42;79.62;100654.03;5035635;28;19929;-81
2024/02/13 06:08:18;;;;;;;;;;;;;;;-0.41;79.95;100647.19;5035703;28;19971;-82
2024/02/13 06:10:45;;;;;;;;;;;;;;;-0.40;80.00;100646.34;5042186;28;19929;-82
2024/02/13 06:13:11;;;;;;;;;;;;;;;-0.40;80.19;100652.38;5055570;28;19931;-82
2024/02/13 06:15:38;;;;;;;;;;;;;;;-0.40;80.27;100657.50;5055808;28;19925;-82
2024/02/13 06:18:05;;;;;;;;;;;;;;;-0.40;80.42;100657.50;5055258;28;19925;-82
2024/02/13 06:20:32;;;;;;;;;;;;;;;-0.41;79.85;100654.88;5055648;28;19924;-82
2024/02/13 06:22:59;;;;;;;;;;;;;;;-0.41;80.50;100653.19;5055344;28;19928;-81
2024/02/13 06:25:27;;;;;;;;;;;;;;;-0.41;79.78;100655.75;5055042;28;19924;-82
2024/02/13 06:27:53;;;;;;;;;;;;;;;-0.40;80.56;100662.66;5054932;28;19925;-82
2024/02/13 06:30:20;;;;;;;;;;;;;;;-0.40;80.16;100661.78;5055054;28;19939;-82
2024/02/13 06:32:47;;;;;;;;;;;;;;;-0.40;79.98;100660.06;5054928;28;20023;-82
2024/02/13 06:35:14;;;;;;;;;;;;;;;-0.39;80.05;100659.22;5035180;28;19931;-81
2024/02/13 06:37:41;;;;;;;;;;;;;;;-0.39;80.03;100666.94;5034807;28;19925;-81
2024/02/13 06:40:08;;;;;;;;;;;;;;;-0.39;80.39;100668.66;5034885;28;19925;-82
2024/02/13 06:42:37;;;;;;;;;;;;;;;-0.38;79.83;100671.22;5035075;28;19956;-82
2024/02/13 06:45:03;;;;;;;;;;;;;;;-0.38;79.72;100671.22;5034650;28;19926;-81
2024/02/13 06:47:30;;;;;;;;;;;;;;;-0.37;79.97;100680.69;5034308;28;19925;-78
2024/02/13 06:50:00;;;;;;;;;;;;;;;-0.37;80.14;100672.97;5033515;28;19941;-78
2024/02/13 06:52:26;;;;;;;;;;;;;;;-0.37;80.51;100674.69;5033896;28;19987;-79
2024/02/13 06:54:53;;;;;;;;;;;;;;;-0.36;80.37;100674.72;5033147;28;20294;-79
2024/02/13 06:57:20;;;;;;;;;;;;;;;-0.37;80.15;100683.28;5033646;28;19932;-79
2024/02/13 06:59:48;;;;;;;;;;;;;;;-0.36;80.20;100685.00;5033669;28;19926;-79
2024/02/13 07:02:15;;;;;;;;;;;;;;;-0.36;80.11;100679.84;5033774;28;20016;-79
2024/02/13 07:04:41;;;;;;;;;;;;;;;-0.36;80.45;100684.13;5033581;28;19932;-79
2024/02/13 07:07:08;;;;;;;;;;;;;;;-0.36;80.08;100679.84;5033532;28;19932;-79
2024/02/13 07:09:34;;;;;;;;;;;;;;;-0.36;80.45;100686.69;5033429;28;19925;-79
2024/02/13 07:12:01;;;;;;;;;;;;;;;-0.35;80.36;100680.72;5033443;28;19935;-79
2024/02/13 07:14:31;;;;;;;;;;;;;;;-0.34;80.10;100680.75;5033258;28;19929;-79
2024/02/13 07:16:59;;;;;;;;;;;;;;;-0.34;80.44;100677.31;5033435;28;19925;-79
2024/02/13 07:19:26;;;;;;;;;;;;;;;-0.34;80.28;100685.91;5033289;28;19935;-78
2024/02/13 07:21:52;;;;;;;;;;;;;;;-0.34;80.12;100688.47;5033429;28;19929;-79
2024/02/13 07:24:19;;;;;;;;;;;;;;;-0.33;79.98;100686.75;5033356;28;19935;-79
2024/02/13 07:26:46;;;;;;;;;;;;;;;-0.31;80.21;100686.81;5033168;28;19925;-74
2024/02/13 07:29:12;;;;;;;;;;;;;;;-0.31;79.86;100686.81;5032903;28;19925;-76
2024/02/13 07:31:39;;;;;;;;;;;;;;;-0.31;80.28;100689.38;5032861;28;19932;-77
2024/02/13 07:34:07;;;;;;;;;;;;;;;-0.29;80.47;100691.13;5032852;28;20023;-77
2024/02/13 07:36:34;;;;;;;;;;;;;;;-0.28;79.74;100686.88;5032809;28;19925;-76
2024/02/13 07:39:01;;;;;;;;;;;;;;;-0.28;80.40;100692.00;5033043;28;19925;-76
2024/02/13 07:41:28;;;;;;;;;;;;;;;-0.28;80.48;100692.88;5032722;28;19932;-76
2024/02/13 07:43:54;;;;;;;;;;;;;;;-0.27;80.58;100693.72;5032752;28;19929;-76
2024/02/13 07:46:21;;;;;;;;;;;;;;;-0.27;80.11;100683.44;5032822;28;19925;-77
2024/02/13 07:48:48;;;;;;;;;;;;;;;-0.26;79.99;100691.22;5032440;28;19925;-77
2024/02/13 07:51:18;;;;;;;;;;;;;;;-0.25;80.03;100692.06;5032656;28;20020;-76
2024/02/13 07:53:45;;;;;;;;;;;;;;;-0.24;80.24;100696.34;5032773;28;20378;-77
2024/02/13 07:56:12;;;;;;;;;;;;;;;-0.22;80.48;100702.41;5032702;28;19943;-77
2024/02/13 07:58:39;;;;;;;;;;;;;;;-0.21;80.19;100699.00;5034193;28;20020;-90
2024/02/13 08:01:07;;;;;;;;;;;;;;;-0.20;80.44;100696.47;5035030;28;20306;-88
2024/02/13 08:03:35;;;;;;;;;;;;;;;-0.19;80.04;100698.19;5034461;28;19925;-89
2024/02/13 08:06:02;;;;;;;;;;;;;;;-0.17;79.62;100703.38;5037653;28;19925;-90
2024/02/13 08:08:30;;;;;;;;;;;;;;;-0.18;79.70;100692.19;5038193;28;20309;-89
2024/02/13 08:10:57;;;;;;;;;;;;;;;-0.16;79.95;100702.53;5038002;28;19935;-89
2024/02/13 08:13:23;;;;;;;;;;;;;;;-0.16;79.90;100697.38;5037923;28;19931;-89
2024/02/13 08:15:50;;;;;;;;;;;;;;;-0.15;79.98;100699.09;5038302;28;19925;-89
2024/02/13 08:18:17;;;;;;;;;;;;;;;-0.14;80.04;100695.72;5037794;28;19943;-88
2024/02/13 08:20:44;;;;;;;;;;;;;;;-0.12;80.12;100700.06;5038399;28;19990;-88
2024/02/13 08:23:11;;;;;;;;;;;;;;;-0.12;80.05;100689.78;5038056;28;19925;-88
2024/02/13 08:25:39;;;;;;;;;;;;;;;-0.11;80.74;100685.50;5037679;28;19926;-88
2024/02/13 08:28:06;;;;;;;;;;;;;;;-0.08;80.48;100694.97;5037908;28;19925;-88
2024/02/13 08:30:33;;;;;;;;;;;;;;;-0.08;80.54;100695.84;5037513;28;19936;-87
2024/02/13 08:33:01;;;;;;;;;;;;;;;-0.06;79.83;100698.41;5040812;28;19935;-87
2024/02/13 08:35:27;;;;;;;;;;;;;;;-0.06;80.19;100696.75;5057486;28;19967;-88
2024/02/13 08:37:54;;;;;;;;;;;;;;;-0.05;80.38;100693.31;5057732;28;19925;-88
2024/02/13 08:40:21;;;;;;;;;;;;;;;-0.03;80.41;100706.19;5057667;28;19931;-87
2024/02/13 08:42:49;;;;;;;;;;;;;;;-0.02;80.42;100706.25;5057626;28;19925;-86
2024/02/13 08:45:15;;;;;;;;;;;;;;;-0.01;80.38;100702.81;5057448;28;19931;-85
2024/02/13 08:47:42;;;;;;;;;;;;;;;0.00;80.20;100704.56;5057265;28;19932;-86
2024/02/13 08:50:09;;;;;;;;;;;;;;;0.00;80.17;100707.13;5057201;28;19931;-85
2024/02/13 08:52:36;;;;;;;;;;;;;;;0.01;80.53;100708.88;5057200;28;19925;-85
2024/02/13 08:55:02;;;;;;;;;;;;;;;0.03;80.35;100707.19;5056933;28;19931;-86
2024/02/13 08:57:29;;;;;;;;;;;;;;;0.04;80.32;100706.34;5056955;28;19931;-85
2024/02/13 08:59:57;;;;;;;;;;;;;;;0.04;80.38;100706.34;5057039;28;19928;-86
2024/02/13 09:02:24;;;;;;;;;;;;;;;0.05;80.28;100710.69;5057075;28;19925;-84
2024/02/13 09:04:50;;;;;;;;;;;;;;;0.06;80.54;100706.41;5056705;28;19931;-84
2024/02/13 09:07:17;;;;;;;;;;;;;;;0.07;80.68;100705.53;5056304;28;19939;-73
2024/02/13 09:09:44;;;;;;;;;;;;;;;0.07;80.94;100706.41;5055029;28;20015;-73
2024/02/13 09:12:11;;;;;;;;;;;;;;;0.07;80.48;100701.25;5054948;28;19942;-73
2024/02/13 09:14:38;;;;;;;;;;;;;;;0.08;80.60;100707.25;5054866;28;20422;-73
2024/02/13 09:17:06;;;;;;;;;;;;;;;0.09;80.65;100711.59;5054256;28;19935;-73
2024/02/13 09:19:32;;;;;;;;;;;;;;;0.09;80.72;100709.03;5055256;28;19982;-73
2024/02/13 09:21:59;;;;;;;;;;;;;;;0.10;80.71;100711.59;5054650;28;19940;-73
2024/02/13 09:24:27;;;;;;;;;;;;;;;0.10;80.69;100716.75;5054730;28;19935;-73
2024/02/13 09:26:54;;;;;;;;;;;;;;;0.12;80.95;100719.38;5054499;28;19928;-73
2024/02/13 09:29:20;;;;;;;;;;;;;;;0.13;80.74;100716.81;5054601;28;19935;-73
2024/02/13 09:31:47;;;;;;;;;;;;;;;0.15;80.89;100729.72;5054541;28;19933;-73
2024/02/13 09:34:15;;;;;;;;;;;;;;;0.16;81.31;100723.72;5054409;28;19931;-73
2024/02/13 09:36:43;;;;;;;;;;;;;;;0.17;81.07;100728.03;5054542;28;19928;-73
2024/02/13 09:39:12;;;;;;;;;;;;;;;0.18;81.15;100726.34;5054306;28;20332;-73
2024/02/13 09:41:40;;;;;;;;;;;;;;;0.19;80.94;100735.78;5054142;28;20016;-72
2024/02/13 09:44:06;;;;;;;;;;;;;;;0.20;81.12;100727.25;5054152;28;19932;-72
2024/02/13 09:46:35;;;;;;;;;;;;;;;0.22;81.43;100730.69;5054303;28;20393;-73
2024/02/13 09:49:02;;;;;;;;;;;;;;;0.24;81.14;100729.03;5055231;28;19924;-81
2024/02/13 09:51:32;;;;;;;;;;;;;;;0.25;80.98;100726.50;5055095;28;19928;-81
2024/02/13 09:54:01;;;;;;;;;;;;;;;0.26;81.20;100720.50;5055064;28;20008;-81
2024/02/13 09:56:28;;;;;;;;;;;;;;;0.28;81.17;100725.66;5055393;28;20409;-81
2024/02/13 09:58:55;;;;;;;;;;;;;;;0.31;81.07;100730.88;5054958;28;19925;-80
2024/02/13 10:01:22;;;;;;;;;;;;;;;0.32;80.87;100732.59;5055009;28;19931;-81
2024/02/13 10:03:49;;;;;;;;;;;;;;;0.32;80.91;100733.47;5055017;28;19929;-80
2024/02/13 10:06:15;;;;;;;;;;;;;;;0.33;81.34;100729.19;5055122;28;20374;-81
2024/02/13 10:08:49;;;;;;;;;;;;;;;0.31;80.65;100726.59;5055195;28;19925;-80
2024/02/13 10:11:18;;;;;;;;;;;;;;;0.33;81.20;100736.91;5055268;28;20382;-80
2024/02/13 10:13:46;;;;;;;;;;;;;;;0.33;80.94;100729.19;5055377;28;19929;-81
2024/02/13 10:16:18;;;;;;;;;;;;;;;0.32;80.88;100728.31;5054966;28;19925;-81
2024/02/13 10:18:45;;;;;;;;;;;;;;;0.33;80.79;100724.91;5054149;28;19931;-76
2024/02/13 10:21:11;;;;;;;;;;;;;;;0.34;80.74;100720.63;5053827;28;19971;-76
2024/02/13 10:23:39;;;;;;;;;;;;;;;0.37;81.27;100735.25;5053566;28;19928;-76
2024/02/13 10:26:10;;;;;;;;;;;;;;;0.38;81.04;100729.28;5053700;28;20297;-76
2024/02/13 10:28:41;;;;;;;;;;;;;;;0.40;81.39;100730.19;5052607;28;19931;-76
2024/02/13 10:31:08;;;;;;;;;;;;;;;0.39;81.21;100729.28;5053686;28;19924;-76
2024/02/13 10:33:40;;;;;;;;;;;;;;;0.40;81.12;100725.91;5053153;28;20340;-76
2024/02/13 10:36:08;;;;;;;;;;;;;;;0.39;80.81;100731.84;5053394;28;19925;-76
2024/02/13 10:38:36;;;;;;;;;;;;;;;0.40;80.68;100731.03;5053310;28;20424;-76
2024/02/13 10:41:07;;;;;;;;;;;;;;;0.39;81.11;100729.28;5053368;28;19928;-76
2024/02/13 10:43:38;;;;;;;;;;;;;;;0.39;81.15;100734.44;5053312;28;19929;-76
2024/02/13 10:46:06;;;;;;;;;;;;;;;0.40;80.58;100732.75;5053122;28;19925;-76
2024/02/13 10:48:34;;;;;;;;;;;;;;;0.41;80.83;100732.75;5052872;28;20380;-76
2024/02/13 10:51:01;;;;;;;;;;;;;;;0.40;80.77;100733.63;5053315;28;19924;-76
2024/02/13 10:53:28;;;;;;;;;;;;;;;0.41;80.75;100734.47;5053098;28;20457;-75
2024/02/13 10:55:55;;;;;;;;;;;;;;;0.42;80.46;100731.91;5053026;28;20298;-76
2024/02/13 10:58:22;;;;;;;;;;;;;;;0.42;80.41;100734.47;5054689;28;19925;-83
2024/02/13 11:00:51;;;;;;;;;;;;;;;0.43;80.55;100731.09;5054439;28;19929;-81
2024/02/13 11:03:18;;;;;;;;;;;;;;;0.45;80.57;100733.69;5053937;28;19925;-80
2024/02/13 11:05:45;;;;;;;;;;;;;;;0.46;80.46;100725.13;5053505;28;20401;-80
2024/02/13 11:08:13;;;;;;;;;;;;;;;0.48;80.44;100733.72;5053424;28;19925;-80
2024/02/13 11:10:41;;;;;;;;;;;;;;;0.49;80.24;100728.63;5053597;28;20002;-80
2024/02/13 11:13:09;;;;;;;;;;;;;;;0.51;80.19;100734.69;5054501;28;19936;-82
2024/02/13 11:15:39;;;;;;;;;;;;;;;0.52;79.88;100731.25;5054003;28;20429;-81
2024/02/13 11:18:11;;;;;;;;;;;;;;;0.52;80.11;100731.25;5053816;28;19925;-81
2024/02/13 11:20:39;;;;;;;;;;;;;;;0.52;80.37;100730.38;5054010;28;19925;-82
2024/02/13 11:23:12;;;;;;;;;;;;;;;0.53;79.91;100740.69;5054087;28;20306;-82
2024/02/13 11:25:40;;;;;;;;;;;;;;;0.53;80.02;100734.69;5053970;28;19924;-82
2024/02/13 11:28:07;;;;;;;;;;;;;;;0.54;80.21;100739.00;5053250;28;19925;-77
2024/02/13 11:30:34;;;;;;;;;;;;;;;0.54;80.40;100739.88;5052771;28;19924;-76
2024/02/13 11:33:05;;;;;;;;;;;;;;;0.54;80.54;100733.88;5053235;28;19925;-76
2024/02/13 11:35:39;;;;;;;;;;;;;;;0.57;80.14;100733.91;5052789;28;19932;-76
2024/02/13 11:38:14;;;;;;;;;;;;;;;0.56;79.83;100727.88;5052714;28;19925;-75
2024/02/13 11:40:42;;;;;;;;;;;;;;;0.58;79.70;100726.19;5055325;28;20015;-76
2024/02/13 11:43:18;;;;;;;;;;;;;;;0.62;79.87;100731.41;5056611;28;19932;-76
2024/02/13 11:45:45;;;;;;;;;;;;;;;0.64;80.08;100724.59;5056571;28;19925;-76
2024/02/13 11:48:12;;;;;;;;;;;;;;;0.66;80.09;100733.22;5056621;28;20344;-76
2024/02/13 11:50:40;;;;;;;;;;;;;;;0.69;79.59;100733.25;5056689;28;19938;-76
2024/02/13 11:53:07;;;;;;;;;;;;;;;0.71;79.89;100735.03;5056502;28;19928;-76
2024/02/13 11:55:33;;;;;;;;;;;;;;;0.73;80.01;100735.88;5056500;28;19929;-76
2024/02/13 11:58:02;;;;;;;;;;;;;;;0.75;80.10;100733.34;5056434;28;19925;-76
2024/02/13 12:00:29;;;;;;;;;;;;;;;0.77;79.71;100734.25;5056290;28;19935;-76
2024/02/13 12:02:56;;;;;;;;;;;;;;;0.77;79.99;100742.84;5056466;28;19924;-76
2024/02/13 12:05:24;;;;;;;;;;;;;;;0.79;79.88;100735.13;5056272;28;19925;-76
2024/02/13 12:07:52;;;;;;;;;;;;;;;0.79;79.94;100736.03;5056750;28;19932;-82
2024/02/13 12:10:19;;;;;;;;;;;;;;;0.80;79.75;100731.72;5057455;28;20323;-82
2024/02/13 12:12:47;;;;;;;;;;;;;;;0.84;80.11;100738.66;5057435;28;19960;-82
2024/02/13 12:15:20;;;;;;;;;;;;;;;0.84;79.63;100741.22;5057233;28;19964;-81
2024/02/13 12:17:54;;;;;;;;;;;;;;;0.85;79.43;100735.25;5057123;28;19975;-81
2024/02/13 12:20:26;;;;;;;;;;;;;;;0.85;79.48;100730.09;5056916;28;19931;-82
2024/02/13 12:22:55;;;;;;;;;;;;;;;0.87;79.74;100732.69;5056774;28;19970;-82
2024/02/13 12:25:22;;;;;;;;;;;;;;;0.87;79.58;100743.84;5056918;28;19931;-81
2024/02/13 12:27:50;;;;;;;;;;;;;;;0.88;79.91;100735.31;5056646;28;19928;-81
2024/02/13 12:30:19;;;;;;;;;;;;;;;0.89;80.03;100731.00;5057108;28;19925;-81
2024/02/13 12:32:46;;;;;;;;;;;;;;;0.89;79.54;100737.03;5049401;28;20301;-81
2024/02/13 12:35:25;;;;;;;;;;;;;;;0.89;79.54;100737.03;5036536;28;19925;-81
2024/02/13 12:37:52;;;;;;;;;;;;;;;0.89;79.45;100739.59;5036420;28;20321;-77
2024/02/13 12:40:22;;;;;;;;;;;;;;;0.90;79.51;100741.31;5035708;28;20440;-77
2024/02/13 12:42:49;;;;;;;;;;;;;;;0.90;79.95;100741.31;5035745;28;19940;-77
2024/02/13 12:45:19;;;;;;;;;;;;;;;0.91;79.65;100745.66;5035991;28;20313;-77
2024/02/13 12:47:46;;;;;;;;;;;;;;;0.92;79.38;100744.78;5035715;28;19971;-77